Nearby METAR Reports

 

EGSS - Stansted Airport, United Kingdom
Distance from station: NW 15mi, 24km
Updated: 23/02/2018 02:20
Clear
Clear
 Wind from ENE
Wind: ENE 7 mph , 11 km/h
Temperature: -3°C
Wind Chill: -7°C
Dew Point: -4°C
Humidity: 93%
Barometer: 1022 hPa
Clouds: Clear
Visibility: 4 miles , 6 km
2018/02/23 02:20 EGSS 230220Z AUTO 06006KT 6000 NCD M03/M04 Q1022
EGMC - Southend-On-Sea, United Kingdom
Distance from station: SE 15mi, 25km
Updated: 23/02/2018 01:50
Few Clouds
Few Clouds
 Wind from E
Wind: E 12 mph , 19 km/h
Temperature: 1°C
Wind Chill: -4°C
Dew Point: -3°C
Humidity: 75%
Barometer: 1022 hPa
Clouds: Few Clouds
Visibility: 6 miles , 10 km
Cloud details: Few Clouds 945 m
2018/02/23 01:50 EGMC 230150Z 09010KT 9999 FEW031 01/M03 Q1022
 
EGLC - London City Airp, United Kingdom
Distance from station: SW 24mi, 39km
Updated: 23/02/2018 02:20
Partly cloudy
Partly cloudy
 Wind from varies
Wind: varies 3 mph , 6 km/h
Temperature: 1°C
Dew Point: -2°C
Humidity: 81%
Barometer: 1022 hPa
Clouds: Partly cloudy
Visibility: 6 miles , 9 km
Cloud details: Partly cloudy 823 m
2018/02/23 02:20 EGLC 230220Z AUTO VRB03KT 9000 SCT027 01/M02 Q1022
EGUW - Wattisham Raf, United Kingdom
Distance from station: NE 34mi, 54km
Updated: 23/02/2018 01:50
Clear
Clear
 Wind from E
Wind: E 6 mph , 9 km/h
Temperature: 0°C
Wind Chill: -3°C
Dew Point: -3°C
Humidity: 80%
Barometer: 1023 hPa
Clouds: Clear
Visibility: 6 miles , 10 km
2018/02/23 01:50 EGUW 230150Z AUTO 09005KT 9999 NCD M00/M03 Q1023
 
EGGW - Luton Airport, United Kingdom
Distance from station: WNW 37mi, 59km
Updated: 23/02/2018 02:20
Haze, Clear
Haze, Clear
 Wind from ENE
Wind: ENE 7 mph , 11 km/h
Temperature: -2°C
Wind Chill: -6°C
Dew Point: -3°C
Humidity: 93%
Barometer: 1022 hPa
Summary: Haze
Clouds: Clear
Visibility: 3 miles , 5 km
2018/02/23 02:20 EGGW 230220Z AUTO 07006KT 5000 HZ NCD M02/M03 Q1022
EGWU - Northolt Raf, United Kingdom
Distance from station: WSW 40mi, 64km
Updated: 23/02/2018 01:50
Clear
Clear
 Wind from E
Wind: E 6 mph , 9 km/h
Temperature: 0°C
Wind Chill: -3°C
Dew Point: -2°C
Humidity: 87%
Barometer: 1022 hPa
Clouds: Clear
Visibility: 6 miles , 9 km
2018/02/23 01:50 EGWU 230150Z AUTO 08005KT 9000 // NCD M00/M02 Q1022